Time;durP1;ratioP1;P1;durP2;ratioP2;P2;SDS_P1;SDS_P2;PMS_P1;PMS_P2;Temp;Humidity;BMP_temperature;BMP_pressure;BME280_temperature;BME280_humidity;BME280_pressure;Samples;Min_cycle;Max_cycle;Signal;HPM_P1;HPM_P2
2022/06/27 00:00:30;;;;;;;3.63;2.15;;;;;;;17.82;82.39;101431.84;2098020;28;20114;-65
2022/06/27 00:01:33;;;;;;;4.93;2.00;;;;;;;17.82;82.71;101418.28;2097488;28;20160;-66
2022/06/27 00:02:36;;;;;;;2.97;1.80;;;;;;;17.83;82.84;101414.59;2097335;28;21388;-66
2022/06/27 00:03:39;;;;;;;5.18;2.08;;;;;;;17.85;82.17;101410.03;2097295;28;20041;-66
2022/06/27 00:04:41;;;;;;;4.18;2.20;;;;;;;17.85;82.44;101399.19;2097306;28;20114;-66
2022/06/27 00:05:43;;;;;;;2.47;1.65;;;;;;;17.85;82.45;101404.63;2098042;28;21658;-66
2022/06/27 00:06:45;;;;;;;2.95;2.00;;;;;;;17.85;82.64;101407.31;2098028;28;20122;-66
2022/06/27 00:07:47;;;;;;;4.03;1.70;;;;;;;17.84;82.58;101397.41;2097512;28;30448;-66
2022/06/27 00:08:51;;;;;;;3.60;1.63;;;;;;;17.85;82.37;101404.63;2097874;28;20127;-66
2022/06/27 00:09:53;;;;;;;3.30;1.77;;;;;;;17.85;82.27;101396.47;2097605;28;24182;-66
2022/06/27 00:10:55;;;;;;;3.85;1.52;;;;;;;17.87;82.27;101394.63;2097685;28;23128;-66
2022/06/27 00:11:59;;;;;;;3.63;1.92;;;;;;;17.87;82.54;101412.69;2097167;28;24939;-67
2022/06/27 00:13:02;;;;;;;4.38;1.90;;;;;;;17.86;83.08;101414.50;2097006;28;20968;-66
2022/06/27 00:14:07;;;;;;;3.53;1.80;;;;;;;17.82;83.65;101414.69;2097888;28;20037;-67
2022/06/27 00:15:10;;;;;;;2.58;1.80;;;;;;;17.78;84.55;101416.66;2097640;28;20826;-66
2022/06/27 00:16:12;;;;;;;3.83;2.13;;;;;;;17.74;84.82;101415.91;2097004;28;26851;-67
2022/06/27 00:17:34;;;;;;;5.53;1.95;;;;;;;17.69;84.83;101408.94;2097566;28;20037;-67
2022/06/27 00:18:37;;;;;;;3.85;2.58;;;;;;;17.67;85.27;101421.69;2096899;28;21750;-66
2022/06/27 00:19:38;;;;;;;3.78;2.22;;;;;;;17.62;86.19;101421.00;2097782;28;23251;-67
2022/06/27 00:20:43;;;;;;;5.20;3.00;;;;;;;17.58;86.44;101416.69;2105403;28;20129;-66
2022/06/27 00:21:44;;;;;;;3.92;2.78;;;;;;;17.55;86.84;101424.00;2104831;28;29978;-66
2022/06/27 00:22:46;;;;;;;4.18;2.80;;;;;;;17.53;86.29;101417.78;2096666;28;25691;-67
2022/06/27 00:23:48;;;;;;;4.40;2.67;;;;;;;17.50;86.80;101423.31;2096410;28;36025;-66
2022/06/27 00:24:50;;;;;;;7.75;3.38;;;;;;;17.48;86.87;101417.09;2097450;28;27959;-66
2022/06/27 00:25:54;;;;;;;6.82;2.67;;;;;;;17.46;86.88;101420.78;2096964;28;25574;-67
2022/06/27 00:26:58;;;;;;;3.97;3.17;;;;;;;17.42;86.43;101428.16;2087821;28;33478;-66
2022/06/27 00:27:59;;;;;;;3.45;3.10;;;;;;;17.42;86.20;101433.59;2088913;28;26594;-67
2022/06/27 00:29:04;;;;;;;5.15;3.03;;;;;;;17.40;86.53;101430.06;2096459;28;20438;-66
2022/06/27 00:30:07;;;;;;;3.95;3.00;;;;;;;17.36;85.86;101426.63;2089038;28;30058;-66
2022/06/27 00:31:09;;;;;;;6.45;3.28;;;;;;;17.35;85.49;101435.69;2089348;28;20276;-67
2022/06/27 00:32:11;;;;;;;5.00;2.78;;;;;;;17.33;85.63;101428.56;2080011;28;32228;-69
2022/06/27 00:33:13;;;;;;;3.00;2.70;;;;;;;17.27;85.74;101428.84;2072578;28;20336;-67
2022/06/27 00:34:15;;;;;;;6.35;2.88;;;;;;;17.17;86.05;101433.75;2088835;28;20041;-69
2022/06/27 00:35:17;;;;;;;4.28;2.90;;;;;;;17.05;86.75;101440.59;2079451;28;38292;-66
2022/06/27 00:36:18;;;;;;;4.07;2.70;;;;;;;16.89;87.53;101428.66;2081590;28;20050;-66
2022/06/27 00:37:24;;;;;;;4.75;2.72;;;;;;;16.77;88.05;101430.00;2093138;28;20053;-67
2022/06/27 00:38:25;;;;;;;5.70;3.28;;;;;;;16.64;89.10;101434.16;2081038;28;20034;-66
2022/06/27 00:39:27;;;;;;;6.07;3.33;;;;;;;16.54;89.48;101420.13;2089300;28;20045;-65
2022/06/27 00:40:30;;;;;;;4.22;3.55;;;;;;;16.45;90.44;101424.06;2096832;28;20044;-65
2022/06/27 00:41:31;;;;;;;8.52;3.60;;;;;;;16.37;91.58;101418.97;2097133;28;20037;-66
2022/06/27 00:42:37;;;;;;;9.38;3.80;;;;;;;16.30;92.27;101414.75;2105815;28;20069;-66
2022/06/27 00:43:45;;;;;;;6.80;4.00;;;;;;;16.22;92.92;101427.66;2096073;28;20909;-66
2022/06/27 00:44:47;;;;;;;7.85;4.85;;;;;;;16.14;93.79;101437.91;2096126;28;21002;-65
2022/06/27 00:45:52;;;;;;;13.55;4.75;;;;;;;16.06;94.40;101431.91;2096980;28;20253;-66
2022/06/27 00:46:54;;;;;;;9.40;4.45;;;;;;;16.01;94.72;101432.09;2097176;28;20033;-65
2022/06/27 00:47:56;;;;;;;8.50;4.70;;;;;;;15.98;95.68;101440.31;2088097;28;20045;-66
2022/06/27 00:48:58;;;;;;;6.57;4.70;;;;;;;15.91;96.21;101436.06;2096573;28;20041;-66
2022/06/27 00:49:59;;;;;;;7.35;4.95;;;;;;;15.84;96.88;101436.31;2096657;28;20882;-67
2022/06/27 00:51:03;;;;;;;10.27;4.82;;;;;;;15.79;97.18;101448.19;2088663;28;20037;-67
2022/06/27 00:52:08;;;;;;;4.85;4.00;;;;;;;15.72;96.70;101447.53;2088639;28;21256;-67
2022/06/27 00:53:11;;;;;;;5.80;4.10;;;;;;;15.65;96.61;101459.47;2088694;28;32861;-69
2022/06/27 00:54:15;;;;;;;6.35;4.00;;;;;;;15.62;96.80;101460.44;2096518;28;26609;-68
2022/06/27 00:55:19;;;;;;;3.85;3.53;;;;;;;15.54;97.34;101462.56;2096542;28;20053;-69
2022/06/27 00:56:22;;;;;;;6.60;3.38;;;;;;;15.52;98.09;101460.81;2087730;28;29386;-69
2022/06/27 00:57:27;;;;;;;5.10;4.13;;;;;;;15.51;98.03;101456.38;2089340;28;20442;-69
2022/06/27 00:58:29;;;;;;;4.60;4.18;;;;;;;15.51;97.90;101451.00;2096494;28;20091;-69
2022/06/27 00:59:31;;;;;;;5.53;4.43;;;;;;;15.53;98.16;101449.13;2105123;28;20893;-68
2022/06/27 01:00:32;;;;;;;6.82;4.68;;;;;;;15.53;98.50;101451.81;2112877;28;20075;-69
2022/06/27 01:01:35;;;;;;;9.00;4.45;;;;;;;15.53;99.78;101449.97;2096056;28;20072;-69
2022/06/27 01:02:36;;;;;;;5.85;3.65;;;;;;;15.50;99.29;101455.47;2088088;28;20049;-69
2022/06/27 01:03:39;;;;;;;5.72;4.00;;;;;;;15.46;98.87;101453.84;2089055;28;20053;-69
2022/06/27 01:04:41;;;;;;;4.50;4.10;;;;;;;15.43;99.13;101453.94;2096309;28;23017;-69
2022/06/27 01:05:51;;;;;;;4.35;3.63;;;;;;;15.42;99.44;101452.19;2088741;28;20953;-69
2022/06/27 01:06:53;;;;;;;3.97;3.58;;;;;;;15.37;99.76;101443.38;2089958;28;20049;-70
2022/06/27 01:07:55;;;;;;;6.80;3.58;;;;;;;15.34;100.00;101438.06;2096533;28;20044;-70
2022/06/27 01:08:57;;;;;;;5.68;3.42;;;;;;;15.30;100.00;101439.13;2103898;28;21608;-69
2022/06/27 01:10:01;;;;;;;5.05;3.33;;;;;;;15.30;100.00;101442.69;2096711;28;20983;-69
2022/06/27 01:11:03;;;;;;;4.68;2.45;;;;;;;15.21;100.00;101433.09;2087623;28;26903;-69
2022/06/27 01:12:06;;;;;;;2.70;2.42;;;;;;;15.20;99.93;101438.53;2089906;28;20100;-70
2022/06/27 01:13:08;;;;;;;2.95;2.15;;;;;;;15.14;99.45;101442.31;2097584;28;20246;-69
2022/06/27 01:14:11;;;;;;;2.47;2.17;;;;;;;15.12;99.17;101436.09;2096614;28;29664;-69
2022/06/27 01:15:14;;;;;;;3.45;2.35;;;;;;;15.12;99.67;101440.63;2088829;28;20779;-69
2022/06/27 01:16:16;;;;;;;5.07;2.28;;;;;;;15.08;100.00;101438.03;2087881;28;20136;-70
2022/06/27 01:17:19;;;;;;;5.07;2.28;;;;;;;15.08;99.97;101431.75;2088052;28;20493;-69
2022/06/27 01:18:21;;;;;;;2.88;1.80;;;;;;;15.03;99.14;101428.34;2088391;28;20072;-69
2022/06/27 01:19:23;;;;;;;2.60;1.75;;;;;;;14.97;99.25;101424.03;2096512;28;20029;-68
2022/06/27 01:20:25;;;;;;;2.70;2.17;;;;;;;14.97;99.12;101428.56;2104814;28;33392;-69
2022/06/27 01:21:31;;;;;;;2.47;2.17;;;;;;;14.97;99.57;101423.16;2088070;28;20057;-68
2022/06/27 01:22:33;;;;;;;3.75;2.60;;;;;;;15.02;100.00;101431.94;2081595;28;20041;-69
2022/06/27 01:23:35;;;;;;;2.60;2.40;;;;;;;14.98;100.00;101425.78;2096467;28;22464;-68
2022/06/27 01:24:38;;;;;;;3.67;2.50;;;;;;;14.97;100.00;101429.44;2097100;28;20885;-68
2022/06/27 01:25:41;;;;;;;3.28;2.53;;;;;;;14.99;100.00;101421.28;2088161;28;20889;-68
2022/06/27 01:26:46;;;;;;;3.00;2.30;;;;;;;14.97;99.50;101420.47;2080773;28;20034;-69
2022/06/27 01:27:55;;;;;;;3.10;2.42;;;;;;;14.99;99.10;101426.69;2096775;28;20036;-69
2022/06/27 01:28:56;;;;;;;3.88;2.33;;;;;;;14.99;99.31;101421.28;2094761;28;20049;-69
2022/06/27 01:30:00;;;;;;;3.50;2.95;;;;;;;15.01;100.00;101432.91;2081030;28;20038;-69
2022/06/27 01:31:03;;;;;;;4.57;3.05;;;;;;;15.01;99.84;101438.28;2088725;28;20211;-69
2022/06/27 01:32:08;;;;;;;3.83;2.97;;;;;;;15.01;98.88;101439.16;2096582;28;20913;-69
2022/06/27 01:33:10;;;;;;;4.03;2.80;;;;;;;15.01;98.56;101441.88;2095204;28;20151;-69
2022/06/27 01:34:14;;;;;;;5.53;2.83;;;;;;;15.02;99.25;101437.34;2096437;28;20126;-69
2022/06/27 01:35:18;;;;;;;3.20;2.35;;;;;;;15.05;98.56;101450.75;2097347;28;20122;-68
2022/06/27 01:37:40;;;;;;;;;;;;;;;15.13;96.43;101440.59;2091620;28;20531;-68
2022/06/27 01:38:42;;;;;;;3.35;2.05;;;;;;;15.17;96.04;101441.38;2096482;28;19929;-69
2022/06/27 01:39:47;;;;;;;3.47;2.33;;;;;;;15.16;95.88;101429.66;2096357;28;28212;-69
2022/06/27 01:40:49;;;;;;;2.80;2.05;;;;;;;15.16;95.45;101432.38;2089128;28;20311;-71
2022/06/27 01:42:02;;;;;;;3.40;2.28;;;;;;;15.17;95.04;101442.22;2096763;28;20033;-68
2022/06/27 01:43:08;;;;;;;3.45;1.92;;;;;;;15.13;94.58;101442.38;2088897;28;20175;-68
2022/06/27 01:44:12;;;;;;;3.90;2.20;;;;;;;15.14;93.92;101454.94;2088661;28;20049;-69
2022/06/27 01:45:13;;;;;;;2.22;2.03;;;;;;;15.12;93.88;101454.13;2096667;28;20037;-70
2022/06/27 01:46:16;;;;;;;5.28;2.50;;;;;;;15.09;94.38;101460.47;2087973;28;20098;-69
2022/06/27 01:47:20;;;;;;;4.68;2.70;;;;;;;15.15;93.87;101463.00;2097544;28;20078;-69
2022/06/27 01:48:29;;;;;;;2.80;2.47;;;;;;;15.12;94.24;101473.00;2101344;28;20970;-69
2022/06/27 01:49:37;;;;;;;3.72;2.20;;;;;;;15.12;95.15;101478.41;2088673;28;21000;-69
2022/06/27 01:50:46;;;;;;;3.13;2.30;;;;;;;15.10;94.69;101483.84;2088964;28;20949;-69
2022/06/27 01:51:51;;;;;;;5.05;1.90;;;;;;;15.11;94.05;101484.72;2097825;28;20064;-69
2022/06/27 01:52:55;;;;;;;2.50;2.00;;;;;;;15.11;94.15;101488.31;2103171;28;20041;-69
2022/06/27 01:53:57;;;;;;;2.22;2.10;;;;;;;15.13;95.05;101486.44;2087757;28;20088;-69
2022/06/27 01:55:00;;;;;;;3.22;2.35;;;;;;;15.17;93.18;101487.22;2080707;28;20055;-69
2022/06/27 01:56:07;;;;;;;3.13;1.85;;;;;;;15.14;92.18;101481.91;2073370;28;20031;-68
2022/06/27 01:57:16;;;;;;;3.72;2.20;;;;;;;15.16;93.21;101475.53;2074813;28;20915;-69
2022/06/27 01:58:19;;;;;;;4.18;2.33;;;;;;;15.12;93.29;101486.47;2088780;28;20080;-69
2022/06/27 01:59:27;;;;;;;3.70;2.08;;;;;;;15.19;94.13;101483.53;2087860;28;20234;-69
2022/06/27 02:00:34;;;;;;;3.17;1.95;;;;;;;15.20;93.54;101479.00;2081323;28;20240;-69
2022/06/27 02:01:40;;;;;;;3.72;2.30;;;;;;;15.24;93.62;101481.56;2088841;28;20053;-69
2022/06/27 02:02:43;;;;;;;2.65;1.70;;;;;;;15.23;94.37;101469.00;2088327;28;20874;-69
2022/06/27 02:03:45;;;;;;;2.60;2.40;;;;;;;15.21;94.14;101467.28;2088356;28;20152;-69
2022/06/27 02:04:47;;;;;;;3.60;2.75;;;;;;;15.21;95.27;101465.47;2088246;28;20038;-68
2022/06/27 02:05:54;;;;;;;2.60;2.35;;;;;;;15.18;94.55;101460.19;2088221;28;20037;-69
2022/06/27 02:06:59;;;;;;;3.03;2.30;;;;;;;15.21;94.58;101460.06;2088729;28;20045;-69
2022/06/27 02:08:03;;;;;;;2.72;2.28;;;;;;;15.20;94.55;101458.31;2095342;28;20305;-68
2022/06/27 02:09:10;;;;;;;4.05;2.58;;;;;;;15.19;94.78;101448.47;2087360;28;20898;-69
2022/06/27 02:10:12;;;;;;;3.17;2.42;;;;;;;15.18;95.13;101444.00;2081187;28;20135;-69
2022/06/27 02:11:17;;;;;;;2.50;2.30;;;;;;;15.22;95.70;101439.41;2088168;28;20820;-69
2022/06/27 02:12:18;;;;;;;3.45;2.55;;;;;;;15.19;95.34;101434.97;2088007;28;20395;-68
2022/06/27 02:13:21;;;;;;;5.00;2.67;;;;;;;15.20;94.90;101436.75;2079530;28;20042;-69
2022/06/27 02:14:24;;;;;;;3.67;2.92;;;;;;;15.25;94.19;101434.78;2080521;28;20045;-68
2022/06/27 02:15:27;;;;;;;3.88;2.58;;;;;;;15.21;94.16;101422.31;2079848;28;20111;-69
2022/06/27 02:16:30;;;;;;;2.25;2.03;;;;;;;15.21;94.65;101416.91;2080551;28;20042;-69
2022/06/27 02:17:32;;;;;;;3.92;2.58;;;;;;;15.19;95.30;101418.78;2088064;28;20050;-69
2022/06/27 02:18:36;;;;;;;3.95;2.53;;;;;;;15.17;94.77;101420.66;2095908;28;20091;-69
2022/06/27 02:19:41;;;;;;;3.30;2.47;;;;;;;15.21;95.00;101407.94;2095900;28;22531;-68
2022/06/27 02:20:42;;;;;;;3.22;2.58;;;;;;;15.22;95.55;101407.91;2096175;28;20175;-69
2022/06/27 02:21:45;;;;;;;6.55;2.60;;;;;;;15.26;95.66;101409.53;2096098;28;20138;-69
2022/06/27 02:22:47;;;;;;;3.88;2.80;;;;;;;15.23;94.91;101401.53;2097228;28;20144;-69
2022/06/27 02:23:51;;;;;;;3.70;2.28;;;;;;;15.23;95.23;101397.97;2095295;28;20037;-69
2022/06/27 02:24:53;;;;;;;2.92;2.65;;;;;;;15.21;95.68;101389.94;2088186;28;20049;-69
2022/06/27 02:25:56;;;;;;;3.92;2.65;;;;;;;15.19;95.71;101389.13;2096252;28;20164;-69
2022/06/27 02:26:58;;;;;;;2.63;2.42;;;;;;;15.17;95.67;101382.88;2096263;28;20087;-69
2022/06/27 02:28:00;;;;;;;4.70;2.65;;;;;;;15.16;94.86;101396.44;2087786;28;20097;-69
2022/06/27 02:29:03;;;;;;;2.95;2.38;;;;;;;15.12;94.95;101392.97;2096269;28;26450;-69
2022/06/27 02:30:07;;;;;;;3.75;2.55;;;;;;;15.11;95.76;101395.69;2104094;28;20083;-69
2022/06/27 02:31:11;;;;;;;3.35;1.80;;;;;;;15.12;95.23;101403.75;2095855;28;20103;-69
2022/06/27 02:32:16;;;;;;;2.92;2.63;;;;;;;15.08;95.32;101407.50;2096027;28;20822;-68
2022/06/27 02:33:20;;;;;;;3.70;2.40;;;;;;;15.08;95.21;101413.75;2097843;28;20051;-69
2022/06/27 02:34:22;;;;;;;3.78;2.03;;;;;;;15.05;93.68;101411.16;2095518;28;21211;-69
2022/06/27 02:35:25;;;;;;;3.20;2.03;;;;;;;15.09;95.08;101420.03;2105210;28;20898;-69
2022/06/27 02:36:41;;;;;;;7.22;2.25;;;;;;;15.07;95.10;101421.91;2111969;28;20238;-69
2022/06/27 02:37:43;;;;;;;6.53;2.10;;;;;;;15.06;93.87;101428.25;2096012;28;24202;-69
2022/06/27 02:38:47;;;;;;;2.17;1.77;;;;;;;15.05;93.10;101424.63;2096264;28;20528;-68
2022/06/27 02:39:52;;;;;;;4.38;1.85;;;;;;;15.05;92.62;101426.47;2096887;28;20037;-69
2022/06/27 02:40:57;;;;;;;2.00;1.80;;;;;;;15.05;93.30;101427.34;2087926;28;20119;-69
2022/06/27 02:42:03;;;;;;;2.45;1.90;;;;;;;15.10;93.08;101429.88;2073043;28;20981;-68
2022/06/27 02:43:08;;;;;;;2.53;2.10;;;;;;;15.09;93.39;101430.81;2089229;28;22246;-69
2022/06/27 02:44:12;;;;;;;3.08;2.40;;;;;;;15.10;93.42;101435.28;2096949;28;20566;-68
2022/06/27 02:45:15;;;;;;;3.53;2.17;;;;;;;15.09;93.62;101436.19;2095822;28;20118;-69
2022/06/27 02:46:20;;;;;;;3.53;2.58;;;;;;;15.10;93.70;101429.88;2080665;28;20050;-69
2022/06/27 02:47:23;;;;;;;4.43;2.17;;;;;;;15.12;93.50;101427.16;2088988;28;20029;-68
2022/06/27 02:48:31;;;;;;;3.63;2.10;;;;;;;15.12;93.13;101427.16;2104348;28;20121;-68
2022/06/27 02:49:33;;;;;;;3.72;2.20;;;;;;;15.10;93.40;101427.19;2097154;28;20339;-69
2022/06/27 02:50:41;;;;;;;3.15;2.10;;;;;;;15.11;93.54;101426.28;2095859;28;20175;-69
2022/06/27 02:52:26;;;;;;;4.00;2.15;;;;;;;15.07;93.43;101424.59;2088803;28;20049;-68
2022/06/27 02:53:42;;;;;;;5.07;2.05;;;;;;;15.07;93.35;101420.09;2062345;28;20047;-68
2022/06/27 02:55:15;;;;;;;2.22;2.03;;;;;;;15.08;93.85;101419.16;2081572;28;20135;-68
2022/06/27 02:56:26;;;;;;;4.30;2.30;;;;;;;15.06;93.97;101422.84;2087921;28;20041;-68
2022/06/27 02:57:45;;;;;;;3.88;2.40;;;;;;;15.06;93.75;101425.53;2083419;28;20042;-68
2022/06/27 02:59:09;;;;;;;3.17;2.05;;;;;;;15.03;93.94;101431.91;2089931;28;20156;-69
2022/06/27 03:00:14;;;;;;;3.50;2.70;;;;;;;15.06;94.35;101439.03;2092158;28;20044;-69
2022/06/27 03:01:19;;;;;;;2.60;2.33;;;;;;;15.05;94.09;101431.84;2087494;28;20180;-68
2022/06/27 03:02:23;;;;;;;4.32;2.17;;;;;;;15.04;94.17;101432.81;2088413;28;20030;-68
2022/06/27 03:03:41;;;;;;;3.40;2.50;;;;;;;15.03;94.44;101421.13;2089806;28;20114;-69
2022/06/27 03:04:43;;;;;;;4.47;2.90;;;;;;;15.08;94.74;101426.38;2079405;28;20053;-69
2022/06/27 03:06:04;;;;;;;3.50;2.53;;;;;;;15.07;94.47;101427.28;2079585;28;24611;-69
2022/06/27 03:07:06;;;;;;;2.50;2.30;;;;;;;15.05;94.36;101430.03;2098601;28;20044;-69
2022/06/27 03:08:12;;;;;;;3.85;2.28;;;;;;;15.04;94.38;101431.00;2096059;28;20079;-68
2022/06/27 03:09:14;;;;;;;3.17;2.78;;;;;;;15.06;95.06;101430.94;2095719;28;20064;-68
2022/06/27 03:10:17;;;;;;;6.70;2.72;;;;;;;15.09;94.73;101428.13;2087181;28;20418;-68
2022/06/27 03:11:23;;;;;;;3.88;2.67;;;;;;;15.03;93.78;101433.72;2088060;28;20076;-68
2022/06/27 03:12:25;;;;;;;4.97;2.47;;;;;;;15.03;94.42;101433.72;2088002;28;22809;-68
2022/06/27 03:13:27;;;;;;;5.72;2.80;;;;;;;15.02;94.04;101442.75;2095950;28;20116;-69
2022/06/27 03:14:37;;;;;;;4.45;2.30;;;;;;;15.01;94.17;101443.69;2096442;28;20155;-69
2022/06/27 03:15:41;;;;;;;3.65;1.92;;;;;;;15.00;94.00;101458.09;2095962;28;20151;-68
2022/06/27 03:16:44;;;;;;;4.90;2.50;;;;;;;15.02;94.42;101457.13;2087891;28;20997;-68
2022/06/27 03:17:47;;;;;;;3.90;2.17;;;;;;;15.02;94.23;101465.22;2095826;28;20838;-68
2022/06/27 03:19:03;;;;;;;3.67;2.63;;;;;;;15.01;94.02;101471.53;2103106;28;20036;-68
2022/06/27 03:20:25;;;;;;;4.13;2.55;;;;;;;15.01;93.93;101465.25;2088093;28;20887;-68
2022/06/27 03:21:32;;;;;;;3.72;2.38;;;;;;;15.01;94.09;101466.13;2096640;28;20116;-68
2022/06/27 03:22:36;;;;;;;5.32;2.45;;;;;;;15.01;93.34;101467.97;2096222;28;20041;-68
2022/06/27 03:23:39;;;;;;;4.88;2.20;;;;;;;15.01;93.30;101467.97;2095807;28;20057;-68
2022/06/27 03:24:42;;;;;;;4.07;2.28;;;;;;;15.06;93.46;101463.31;2087313;28;20926;-68
2022/06/27 03:25:44;;;;;;;2.25;2.05;;;;;;;15.04;92.93;101465.16;2088086;28;20155;-68
2022/06/27 03:26:46;;;;;;;3.13;2.15;;;;;;;15.02;92.70;101456.22;2095392;28;20033;-69
2022/06/27 03:27:48;;;;;;;3.42;2.35;;;;;;;15.01;92.67;101462.56;2087707;28;20077;-69
2022/06/27 03:28:53;;;;;;;2.75;2.10;;;;;;;15.00;92.53;101475.19;2096167;28;20833;-69
2022/06/27 03:29:55;;;;;;;4.18;2.35;;;;;;;15.00;92.93;101467.09;2095826;28;20799;-69
2022/06/27 03:30:57;;;;;;;3.28;2.55;;;;;;;15.02;93.58;101469.72;2087577;28;20137;-69
2022/06/27 03:32:02;;;;;;;3.15;2.55;;;;;;;15.00;93.58;101460.78;2089183;28;20164;-67
2022/06/27 03:33:04;;;;;;;2.17;1.98;;;;;;;14.99;93.61;101459.03;2107071;28;20179;-66
2022/06/27 03:34:13;;;;;;;5.43;2.10;;;;;;;14.97;93.47;101459.09;2105558;28;20044;-66
2022/06/27 03:35:25;;;;;;;2.85;2.30;;;;;;;14.96;94.40;101446.53;2098976;28;20794;-67
2022/06/27 03:36:29;;;;;;;3.15;2.25;;;;;;;14.96;94.24;101443.81;2090195;28;20079;-66
2022/06/27 03:37:30;;;;;;;2.92;2.30;;;;;;;14.94;93.81;101436.75;2082479;28;20152;-66
2022/06/27 03:38:33;;;;;;;3.78;2.50;;;;;;;14.94;95.02;101432.22;2098383;28;20139;-66
2022/06/27 03:39:35;;;;;;;4.88;2.35;;;;;;;14.93;94.60;101426.88;2089683;28;20025;-66
2022/06/27 03:40:37;;;;;;;4.68;2.38;;;;;;;14.93;94.99;101416.09;2082333;28;20053;-66
2022/06/27 03:41:42;;;;;;;2.88;2.42;;;;;;;14.89;94.68;101424.31;2098902;28;20187;-67
2022/06/27 03:42:46;;;;;;;3.55;2.50;;;;;;;14.90;95.23;101417.09;2098186;28;20044;-66
2022/06/27 03:43:49;;;;;;;3.67;2.63;;;;;;;14.87;95.97;101422.56;2107448;28;20167;-68
2022/06/27 03:44:52;;;;;;;3.55;2.60;;;;;;;14.84;95.41;101415.47;2098866;28;21063;-67
2022/06/27 03:45:57;;;;;;;2.40;2.20;;;;;;;14.83;95.20;101416.41;2082872;28;20038;-66
2022/06/27 03:46:59;;;;;;;3.97;2.83;;;;;;;14.83;95.52;101412.81;2098569;28;20056;-66
2022/06/27 03:50:02;;;;;;;5.60;2.45;;;;;;;14.74;95.32;101403.22;2098575;28;20037;-66
2022/06/27 03:51:10;;;;;;;4.85;2.25;;;;;;;14.70;96.05;101413.22;2106879;28;20171;-66
2022/06/27 03:52:12;;;;;;;3.03;2.00;;;;;;;14.70;95.44;101404.28;2098663;28;20053;-66
2022/06/27 03:53:14;;;;;;;4.10;2.10;;;;;;;14.68;96.15;101398.06;2098401;28;20107;-66
2022/06/27 03:54:21;;;;;;;4.35;2.42;;;;;;;14.64;96.12;101396.38;2090659;28;20061;-66
2022/06/27 03:55:28;;;;;;;4.40;2.60;;;;;;;14.61;96.54;101383.00;2091195;28;20111;-66
2022/06/27 03:56:31;;;;;;;3.72;2.38;;;;;;;14.62;96.32;101380.25;2099428;28;20037;-66
2022/06/27 03:57:38;;;;;;;5.95;2.28;;;;;;;14.58;95.75;101393.88;2097589;28;20048;-67
2022/06/27 03:58:41;;;;;;;3.60;2.42;;;;;;;14.56;96.54;101391.19;2108059;28;20040;-66
2022/06/27 03:59:43;;;;;;;5.30;2.85;;;;;;;14.54;96.82;101386.81;2113816;27;20024;-66
2022/06/27 04:00:46;;;;;;;3.25;2.03;;;;;;;14.53;96.41;101385.91;2098677;28;20040;-67
2022/06/27 04:01:48;;;;;;;4.20;2.17;;;;;;;14.53;96.56;101380.50;2095223;28;21016;-67
2022/06/27 04:02:52;;;;;;;4.72;2.30;;;;;;;14.52;96.16;101379.63;2090444;28;20053;-67
2022/06/27 04:04:16;;;;;;;2.60;2.05;;;;;;;14.52;96.15;101379.63;2077004;28;20066;-67
2022/06/27 04:05:21;;;;;;;3.55;2.15;;;;;;;14.49;95.67;101368.94;2085316;28;20107;-67
2022/06/27 04:06:25;;;;;;;4.10;2.00;;;;;;;14.49;95.98;101371.66;2089872;28;20267;-67
2022/06/27 04:07:29;;;;;;;4.05;1.90;;;;;;;14.46;96.67;101374.47;2090715;28;20922;-67
2022/06/27 04:08:30;;;;;;;2.90;1.75;;;;;;;14.46;95.81;101373.56;2090797;28;20041;-66
2022/06/27 04:09:32;;;;;;;4.97;1.85;;;;;;;14.44;95.74;101364.66;2082023;28;20042;-66
2022/06/27 04:10:37;;;;;;;4.22;2.20;;;;;;;14.42;95.68;101366.50;2081816;28;20088;-67
2022/06/27 04:11:39;;;;;;;2.83;1.90;;;;;;;14.42;96.12;101363.81;2081668;28;20041;-66
2022/06/27 04:12:45;;;;;;;4.25;1.75;;;;;;;14.43;96.11;101371.84;2082662;28;20128;-67
2022/06/27 04:14:27;;;;;;;4.45;1.85;;;;;;;14.42;95.15;101379.97;2090721;28;20156;-66
2022/06/27 04:15:57;;;;;;;1.55;1.45;;;;;;;14.38;94.56;101376.50;2090070;28;20042;-67
2022/06/27 04:17:20;;;;;;;5.15;1.67;;;;;;;14.38;95.30;101379.19;2090567;28;20570;-67
2022/06/27 04:18:40;;;;;;;3.40;1.92;;;;;;;14.34;95.54;101374.84;2090023;28;20049;-67
2022/06/27 04:20:00;;;;;;;;;;;;;;;14.37;96.59;101372.03;2090252;28;20049;-67
2022/06/27 04:21:14;;;;;;;7.03;2.10;;;;;;;14.37;96.24;101377.41;2089938;28;19929;-67
2022/06/27 04:22:22;;;;;;;3.67;1.65;;;;;;;14.40;96.20;101373.78;2083446;28;20847;-67
2022/06/27 04:23:32;;;;;;;4.70;1.60;;;;;;;14.39;95.59;101370.19;2091894;28;20045;-67
2022/06/27 04:24:52;;;;;;;3.38;2.05;;;;;;;14.37;95.92;101368.47;2089878;28;20106;-67
2022/06/27 04:26:02;;;;;;;4.47;1.90;;;;;;;14.38;96.15;101363.03;2087452;28;20042;-67
2022/06/27 04:27:04;;;;;;;5.05;2.35;;;;;;;14.39;95.92;101366.59;2098291;28;20945;-67
2022/06/27 04:28:06;;;;;;;2.75;1.63;;;;;;;14.38;95.28;101371.13;2098048;28;29748;-68
2022/06/27 04:29:08;;;;;;;3.45;1.63;;;;;;;14.37;95.59;101380.13;2098544;28;20214;-67
2022/06/27 04:30:16;;;;;;;3.28;1.80;;;;;;;14.40;95.94;101374.63;2097957;28;20864;-67
2022/06/27 04:31:18;;;;;;;3.92;1.63;;;;;;;14.41;95.94;101371.03;2089540;28;20909;-68
2022/06/27 04:32:23;;;;;;;3.95;1.60;;;;;;;14.42;95.71;101377.28;2082003;28;20203;-68
2022/06/27 04:33:24;;;;;;;3.05;1.60;;;;;;;14.44;95.96;101375.44;2090344;28;20046;-67
2022/06/27 04:34:27;;;;;;;3.22;1.52;;;;;;;14.40;95.49;101374.63;2091169;28;20045;-66
2022/06/27 04:35:28;;;;;;;3.08;1.55;;;;;;;14.43;95.61;101377.25;2089774;28;20041;-67
2022/06/27 04:36:31;;;;;;;4.10;1.85;;;;;;;14.45;95.72;101375.38;2081865;28;20069;-67
2022/06/27 04:37:33;;;;;;;2.58;1.58;;;;;;;14.49;95.80;101363.56;2081897;28;20091;-67
2022/06/27 04:38:58;;;;;;;3.08;1.60;;;;;;;14.49;95.50;101355.47;2089374;28;20084;-68
2022/06/27 04:40:22;;;;;;;2.78;1.38;;;;;;;14.47;95.09;101354.66;2082368;28;20033;-67
2022/06/27 04:41:28;;;;;;;2.78;1.33;;;;;;;14.51;95.66;101350.91;2084730;28;20068;-68
2022/06/27 04:42:30;;;;;;;3.85;1.35;;;;;;;14.51;95.66;101337.44;2090666;28;20041;-68
2022/06/27 04:43:35;;;;;;;3.75;1.80;;;;;;;14.56;96.14;101337.31;2088027;28;20195;-67
2022/06/27 04:44:42;;;;;;;3.53;1.60;;;;;;;14.58;95.74;101337.28;2096715;28;20045;-67
2022/06/27 04:45:44;;;;;;;2.78;1.30;;;;;;;14.55;95.30;101340.03;2097416;28;20930;-67
2022/06/27 04:47:17;;;;;;;2.28;1.30;;;;;;;14.55;95.15;101330.13;2097042;28;20045;-67
2022/06/27 04:48:34;;;;;;;2.13;1.05;;;;;;;14.56;95.39;101325.66;2097225;28;20099;-68
2022/06/27 04:49:36;;;;;;;2.67;1.40;;;;;;;14.58;95.71;101329.22;2096990;28;20980;-68
2022/06/27 04:50:40;;;;;;;2.42;1.25;;;;;;;14.54;95.23;101331.09;2096736;28;20087;-67
2022/06/27 04:51:48;;;;;;;2.50;1.30;;;;;;;14.56;95.14;101328.34;2088810;28;20037;-68
2022/06/27 04:52:52;;;;;;;3.37;1.30;;;;;;;14.52;94.85;101330.25;2082453;28;20034;-67
2022/06/27 04:53:54;;;;;;;3.58;1.30;;;;;;;14.56;95.22;101336.44;2081703;28;20229;-68
2022/06/27 04:54:56;;;;;;;1.55;0.90;;;;;;;14.55;94.82;101329.28;2097878;28;20054;-68
2022/06/27 04:55:59;;;;;;;3.00;1.30;;;;;;;14.57;94.95;101338.19;2096113;28;20084;-68
2022/06/27 04:57:05;;;;;;;3.10;1.52;;;;;;;14.51;95.26;101342.84;2088605;28;20041;-67
2022/06/27 04:58:10;;;;;;;2.97;1.20;;;;;;;14.51;95.00;101348.22;2089731;28;20060;-67
2022/06/27 04:59:15;;;;;;;3.72;1.42;;;;;;;14.52;95.07;101352.69;2096881;28;20045;-68
2022/06/27 05:00:19;;;;;;;2.83;1.40;;;;;;;14.53;95.15;101358.94;2096639;28;20184;-68
2022/06/27 05:01:51;;;;;;;1.95;0.90;;;;;;;14.49;94.79;101347.41;2087960;28;20046;-68
2022/06/27 05:02:55;;;;;;;3.60;1.30;;;;;;;14.51;94.52;101355.44;2096925;28;20194;-67
2022/06/27 05:03:58;;;;;;;2.78;1.40;;;;;;;14.46;95.09;101352.91;2092400;28;20123;-68
2022/06/27 05:05:08;;;;;;;3.10;1.52;;;;;;;14.49;94.90;101358.19;2097795;28;20167;-68
2022/06/27 05:06:10;;;;;;;2.00;1.40;;;;;;;14.52;95.57;101355.38;2096249;28;20037;-68
2022/06/27 05:07:15;;;;;;;3.38;1.60;;;;;;;14.51;95.35;101355.44;2072288;28;20152;-68